Terminal Aerodrome Forecast
Issued by NWS

Home | Current Version | Previous Version | Text Only | Print | Product List | Glossary On
Versions: 1 2 3 4 5 6 7 8 9 10 11 12 13 14
000
FTUS45 KFGZ 210500
TAFSEZ
TAF
KSEZ 210540Z 2106/2206 VRB05KT P6SM BKN200
     FM210900 05009KT P6SM SCT200
     FM211600 VRB05KT P6SM SCT200
     FM212100 18005KT P6SM SCT200
     FM220300 05006KT P6SM BKN200=

USA.gov is the U.S. government's official web portal to all federal, state and local government web resources and services.